Time;durP1;ratioP1;P1;durP2;ratioP2;P2;SDS_P1;SDS_P2;PMS_P1;PMS_P2;Temp;Humidity;BMP_temperature;BMP_pressure;BME280_temperature;BME280_humidity;BME280_pressure;Samples;Min_cycle;Max_cycle;Signal;HPM_P1;HPM_P2
2022/05/30 02:23:51;;;;;;;0.80;0.60;;;16.20;70.80;;;;;;6248888;23;20011;-78
2022/05/30 02:30:19;;;;;;;0.93;0.50;;;16.30;71.20;;;;;;6249322;23;20065;-79
2022/05/30 02:32:45;;;;;;;0.50;0.45;;;16.50;71.00;;;;;;6244991;23;20003;-79
2022/05/30 02:37:54;;;;;;;0.80;0.50;;;16.90;70.00;;;;;;6244326;23;20015;-81
2022/05/30 02:40:20;;;;;;;0.80;0.50;;;17.00;69.70;;;;;;6244361;23;20020;-81
2022/05/30 02:42:46;;;;;;;0.40;0.30;;;17.00;69.00;;;;;;6244169;23;20012;-80
2022/05/30 02:45:12;;;;;;;1.17;0.50;;;17.10;68.80;;;;;;6244296;23;20005;-80
2022/05/30 02:47:37;;;;;;;1.25;0.50;;;17.10;68.60;;;;;;6244180;23;20430;-80
2022/05/30 02:50:03;;;;;;;2.25;0.47;;;17.20;68.30;;;;;;6244741;23;20028;-80
2022/05/30 02:52:30;;;;;;;0.88;0.40;;;17.20;68.20;;;;;;6245237;23;19997;-80
2022/05/30 02:54:55;;;;;;;0.70;0.30;;;17.10;67.60;;;;;;6244532;23;20419;-78
2022/05/30 02:57:21;;;;;;;0.63;0.40;;;17.10;68.10;;;;;;6244508;23;20003;-78
2022/05/30 02:59:47;;;;;;;0.68;0.35;;;17.20;68.00;;;;;;6245438;23;20008;-77
2022/05/30 03:02:23;;;;;;;0.55;0.50;;;17.30;67.90;;;;;;6244704;23;20004;-78
2022/05/30 03:04:49;;;;;;;0.95;0.52;;;17.30;67.60;;;;;;6245222;23;20055;-77
2022/05/30 03:07:14;;;;;;;1.75;0.75;;;17.20;66.50;;;;;;6245335;23;20087;-77
2022/05/30 03:09:40;;;;;;;1.02;0.50;;;16.90;67.40;;;;;;6244140;23;20000;-78
2022/05/30 03:12:06;;;;;;;0.63;0.47;;;16.70;67.70;;;;;;6245315;23;20372;-78
2022/05/30 03:14:32;;;;;;;0.55;0.40;;;16.50;68.70;;;;;;6245351;23;20111;-78
2022/05/30 03:16:57;;;;;;;1.67;0.60;;;16.50;69.20;;;;;;6243294;23;20000;-79
2022/05/30 03:19:24;;;;;;;0.82;0.43;;;16.60;68.90;;;;;;6242120;23;20004;-80
2022/05/30 03:21:50;;;;;;;0.40;0.32;;;16.70;69.70;;;;;;6219524;23;20066;-79
2022/05/30 03:24:15;;;;;;;2.47;0.47;;;16.80;69.10;;;;;;6219492;23;20046;-79
2022/05/30 03:26:41;;;;;;;0.35;0.35;;;17.00;69.20;;;;;;6245938;23;20035;-80
2022/05/30 03:29:07;;;;;;;0.60;0.45;;;17.10;69.20;;;;;;6217658;23;20008;-79
2022/05/30 03:31:32;;;;;;;0.60;0.43;;;17.10;69.50;;;;;;6245997;23;20004;-79
2022/05/30 03:33:58;;;;;;;1.65;0.50;;;17.20;69.80;;;;;;6246579;23;20361;-79
2022/05/30 03:36:27;;;;;;;1.27;0.40;;;17.30;70.10;;;;;;6246707;23;20031;-78
2022/05/30 03:38:53;;;;;;;0.57;0.57;;;17.30;69.40;;;;;;6245091;23;20062;-78
2022/05/30 03:41:19;;;;;;;1.30;0.50;;;17.30;68.90;;;;;;6246101;23;20095;-79
2022/05/30 03:43:45;;;;;;;0.60;0.50;;;17.40;68.90;;;;;;6246357;23;20036;-79
2022/05/30 03:46:11;;;;;;;0.70;0.60;;;17.30;68.40;;;;;;6245225;23;20736;-78
2022/05/30 03:48:37;;;;;;;0.52;0.50;;;17.30;68.80;;;;;;6244156;23;20016;-78
2022/05/30 03:51:05;;;;;;;0.95;0.73;;;17.20;68.80;;;;;;6219933;23;20414;-78
2022/05/30 03:53:30;;;;;;;1.90;0.70;;;17.10;68.50;;;;;;6246870;23;20327;-78
2022/05/30 03:55:56;;;;;;;0.45;0.40;;;17.00;69.50;;;;;;6246511;23;20000;-77
2022/05/30 03:58:22;;;;;;;0.60;0.60;;;17.00;69.80;;;;;;6218009;23;20019;-77
2022/05/30 04:00:48;;;;;;;1.10;0.85;;;17.10;69.90;;;;;;6245103;23;20008;-78
2022/05/30 04:03:13;;;;;;;1.05;0.73;;;17.10;70.50;;;;;;6245857;23;20083;-77
2022/05/30 04:05:40;;;;;;;0.90;0.80;;;17.20;70.90;;;;;;6246079;23;20079;-78
2022/05/30 04:08:06;;;;;;;0.63;0.60;;;16.90;70.40;;;;;;6245993;23;20327;-77
2022/05/30 04:10:32;;;;;;;0.50;0.47;;;16.80;71.10;;;;;;6244892;23;20003;-79
2022/05/30 04:13:04;;;;;;;3.58;0.90;;;16.90;71.50;;;;;;6245617;23;19996;-79
2022/05/30 04:15:30;;;;;;;3.05;1.10;;;17.00;71.70;;;;;;6246369;23;20075;-80
2022/05/30 04:17:56;;;;;;;1.00;0.70;;;16.90;70.90;;;;;;6245703;23;20011;-80
2022/05/30 04:20:22;;;;;;;0.60;0.50;;;16.80;71.20;;;;;;6245085;23;20398;-78
2022/05/30 04:22:48;;;;;;;1.42;0.90;;;16.60;71.20;;;;;;6246003;23;19996;-78
2022/05/30 04:25:13;;;;;;;2.20;0.60;;;16.40;71.10;;;;;;6244504;23;20486;-79
2022/05/30 04:27:39;;;;;;;0.57;0.52;;;16.40;72.10;;;;;;6219079;23;20007;-79
2022/05/30 04:30:07;;;;;;;0.52;0.45;;;16.40;72.00;;;;;;6246200;23;20007;-78
2022/05/30 04:32:34;;;;;;;1.10;0.38;;;16.50;72.00;;;;;;6246364;23;20044;-76
2022/05/30 04:35:00;;;;;;;0.95;0.50;;;16.70;71.70;;;;;;6216293;23;20005;-77
2022/05/30 04:37:28;;;;;;;0.80;0.30;;;16.90;71.60;;;;;;6243153;23;20059;-77
2022/05/30 04:39:53;;;;;;;0.40;0.40;;;16.90;70.90;;;;;;6245684;23;20011;-77
2022/05/30 04:42:19;;;;;;;0.77;0.32;;;17.00;70.90;;;;;;6243137;23;20024;-76
2022/05/30 04:44:45;;;;;;;0.60;0.32;;;17.00;70.70;;;;;;6243386;23;20011;-76
2022/05/30 04:47:12;;;;;;;0.43;0.30;;;17.00;69.80;;;;;;6243539;23;20000;-75
2022/05/30 04:49:38;;;;;;;0.57;0.28;;;17.10;70.30;;;;;;6218062;23;20008;-76
2022/05/30 04:52:05;;;;;;;1.27;0.50;;;17.10;69.30;;;;;;6245407;23;20071;-76
2022/05/30 04:54:31;;;;;;;0.30;0.30;;;16.90;68.70;;;;;;6245072;23;20016;-76
2022/05/30 04:56:57;;;;;;;0.30;0.28;;;16.90;69.30;;;;;;6244823;23;20000;-75
2022/05/30 04:59:22;;;;;;;0.43;0.35;;;16.90;69.70;;;;;;6219083;23;20419;-75
2022/05/30 05:01:48;;;;;;;1.20;0.70;;;16.90;69.70;;;;;;6244228;23;20032;-76
2022/05/30 05:04:14;;;;;;;1.23;0.70;;;17.00;69.30;;;;;;6245311;23;20007;-76
2022/05/30 05:06:43;;;;;;;1.45;0.80;;;17.00;67.90;;;;;;6245361;23;20004;-76
2022/05/30 05:09:17;;;;;;;0.73;0.55;;;17.00;67.90;;;;;;6244677;23;20024;-76
2022/05/30 05:11:45;;;;;;;0.60;0.60;;;17.00;68.30;;;;;;6245757;23;20000;-77
2022/05/30 05:14:11;;;;;;;0.63;0.40;;;17.10;68.50;;;;;;6218875;23;20430;-77
2022/05/30 05:16:37;;;;;;;0.80;0.50;;;17.20;68.20;;;;;;6245006;23;20001;-78
2022/05/30 05:19:04;;;;;;;1.30;0.50;;;17.20;66.70;;;;;;6245557;23;20004;-77
2022/05/30 05:21:33;;;;;;;1.27;0.30;;;17.10;66.90;;;;;;6244787;23;20062;-78
2022/05/30 05:24:00;;;;;;;1.33;0.70;;;17.20;67.70;;;;;;6244994;23;20004;-77
2022/05/30 05:26:26;;;;;;;0.65;0.50;;;17.20;67.90;;;;;;6245608;23;20004;-77
2022/05/30 05:28:52;;;;;;;1.35;0.60;;;17.30;67.90;;;;;;6218494;23;20078;-77
2022/05/30 05:31:34;;;;;;;0.35;0.30;;;17.40;68.10;;;;;;6245016;23;20007;-76
2022/05/30 05:34:02;;;;;;;0.40;0.40;;;17.50;67.10;;;;;;6244883;23;20000;-76
2022/05/30 05:36:32;;;;;;;0.60;0.47;;;17.50;67.20;;;;;;6245045;23;20000;-77
2022/05/30 05:38:59;;;;;;;0.73;0.30;;;17.30;65.60;;;;;;6216592;23;20496;-78
2022/05/30 05:41:25;;;;;;;0.95;0.55;;;17.40;66.50;;;;;;6243076;23;20061;-83
2022/05/30 05:43:54;;;;;;;1.83;0.63;;;17.40;66.00;;;;;;6242887;23;20000;-77
2022/05/30 05:46:23;;;;;;;0.73;0.45;;;17.50;66.90;;;;;;6243768;23;20323;-76
2022/05/30 05:48:54;;;;;;;3.85;0.47;;;17.60;66.40;;;;;;6218030;23;20099;-77
2022/05/30 05:51:21;;;;;;;0.47;0.30;;;17.70;65.90;;;;;;6244366;23;20000;-77
2022/05/30 05:53:47;;;;;;;0.57;0.20;;;17.70;65.50;;;;;;6244277;23;20031;-77
2022/05/30 05:56:18;;;;;;;0.70;0.43;;;17.70;64.90;;;;;;6217298;23;20001;-78
2022/05/30 05:58:44;;;;;;;0.38;0.30;;;17.80;64.80;;;;;;6211607;23;20066;-77
2022/05/30 06:01:22;;;;;;;0.30;0.30;;;17.80;64.20;;;;;;6236145;23;20004;-77
2022/05/30 06:03:48;;;;;;;0.50;0.30;;;17.90;64.20;;;;;;6238444;23;20438;-76
2022/05/30 06:06:13;;;;;;;0.35;0.30;;;18.00;64.00;;;;;;6241022;23;20053;-76
2022/05/30 06:08:39;;;;;;;0.98;0.55;;;18.00;64.10;;;;;;6241872;23;20004;-78
2022/05/30 06:11:35;;;;;;;2.67;0.35;;;18.10;64.30;;;;;;6241822;23;19996;-79
2022/05/30 06:14:03;;;;;;;0.85;0.32;;;18.10;64.70;;;;;;6213590;23;20008;-77
2022/05/30 06:16:32;;;;;;;0.63;0.30;;;18.20;64.00;;;;;;6238608;23;20079;-79
2022/05/30 06:19:01;;;;;;;1.30;0.50;;;18.20;63.50;;;;;;6243925;23;20000;-78
2022/05/30 06:21:28;;;;;;;0.57;0.43;;;18.20;63.50;;;;;;6244109;23;20457;-78
2022/05/30 06:23:56;;;;;;;0.63;0.30;;;18.30;63.40;;;;;;6245113;23;20000;-77
2022/05/30 06:26:22;;;;;;;3.13;0.50;;;18.30;62.70;;;;;;6245187;23;20004;-77
2022/05/30 06:28:48;;;;;;;0.85;0.40;;;18.30;61.80;;;;;;6244412;23;20399;-77
2022/05/30 06:31:20;;;;;;;1.52;0.75;;;18.40;62.80;;;;;;6244464;23;20007;-77
2022/05/30 06:33:46;;;;;;;0.60;0.50;;;18.40;62.70;;;;;;6244623;23;20007;-77
2022/05/30 06:36:15;;;;;;;1.60;0.50;;;18.40;63.00;;;;;;6244206;23;20000;-77
2022/05/30 06:38:41;;;;;;;0.60;0.50;;;18.40;63.10;;;;;;6238348;23;20004;-76
2022/05/30 06:41:15;;;;;;;1.35;0.70;;;18.40;63.40;;;;;;6242654;23;20008;-77
2022/05/30 06:43:42;;;;;;;2.80;0.68;;;18.50;63.20;;;;;;6216080;23;20438;-79
2022/05/30 06:46:08;;;;;;;0.70;0.70;;;18.50;63.10;;;;;;6244426;23;20004;-78
2022/05/30 06:48:34;;;;;;;3.92;0.77;;;18.50;63.20;;;;;;6244474;23;20069;-79
2022/05/30 06:51:11;;;;;;;1.73;1.00;;;18.50;63.20;;;;;;6244507;23;21068;-78
2022/05/30 06:53:37;;;;;;;1.38;1.05;;;18.60;63.60;;;;;;6216412;23;20638;-79
2022/05/30 06:56:15;;;;;;;1.10;0.90;;;18.60;63.40;;;;;;6244486;23;20072;-79
2022/05/30 06:58:43;;;;;;;1.33;0.60;;;18.60;62.90;;;;;;6244547;23;20012;-78
2022/05/30 07:01:09;;;;;;;1.15;0.85;;;18.60;63.40;;;;;;6246669;23;20023;-78
2022/05/30 07:03:36;;;;;;;0.82;0.60;;;18.60;63.90;;;;;;6247052;23;20004;-78
2022/05/30 07:06:09;;;;;;;0.88;0.60;;;18.60;63.80;;;;;;6246202;23;20004;-78
2022/05/30 07:08:35;;;;;;;1.80;0.88;;;18.60;64.10;;;;;;6219398;23;20019;-77
2022/05/30 07:11:01;;;;;;;2.38;0.70;;;18.60;63.40;;;;;;6246322;23;20319;-77
2022/05/30 07:13:28;;;;;;;1.48;0.50;;;18.60;63.50;;;;;;6246594;23;19996;-77
2022/05/30 07:15:54;;;;;;;0.68;0.50;;;18.70;63.80;;;;;;6246289;23;20437;-77
2022/05/30 07:18:20;;;;;;;0.80;0.57;;;18.70;63.60;;;;;;6246521;23;20050;-77
2022/05/30 07:20:46;;;;;;;1.23;0.73;;;18.80;63.40;;;;;;6246259;23;20005;-77
2022/05/30 07:23:13;;;;;;;1.75;0.60;;;18.80;63.50;;;;;;6246509;23;20004;-77
2022/05/30 07:25:40;;;;;;;1.00;0.50;;;18.90;63.30;;;;;;6246254;23;20000;-77
2022/05/30 07:28:07;;;;;;;2.72;0.80;;;18.90;63.90;;;;;;6218048;23;20615;-77
2022/05/30 07:30:35;;;;;;;0.40;0.40;;;19.00;63.60;;;;;;6246121;23;20003;-77
2022/05/30 07:33:01;;;;;;;0.85;0.47;;;19.00;63.00;;;;;;6219088;23;20004;-77
2022/05/30 07:35:27;;;;;;;2.17;1.00;;;19.10;62.90;;;;;;6246663;23;20007;-81
2022/05/30 07:37:53;;;;;;;1.05;0.50;;;19.20;62.10;;;;;;6246352;23;20095;-78
2022/05/30 07:40:20;;;;;;;1.02;0.50;;;19.20;61.50;;;;;;6247133;23;20004;-77
2022/05/30 07:42:47;;;;;;;0.63;0.50;;;19.20;62.10;;;;;;6246677;23;20073;-77
2022/05/30 07:45:13;;;;;;;0.55;0.38;;;19.20;60.60;;;;;;6245861;23;20028;-78
2022/05/30 07:47:39;;;;;;;0.50;0.50;;;19.20;62.50;;;;;;6219578;23;20008;-79
2022/05/30 07:50:06;;;;;;;1.00;0.50;;;19.40;61.90;;;;;;6246386;23;20076;-79
2022/05/30 07:52:33;;;;;;;0.40;0.40;;;19.40;62.00;;;;;;6242599;23;20092;-79
2022/05/30 07:54:59;;;;;;;0.57;0.40;;;19.40;61.30;;;;;;6244490;23;20348;-79
2022/05/30 08:00:11;;;;;;;0.50;0.40;;;19.40;61.40;;;;;;6246977;23;20018;-79
2022/05/30 08:02:38;;;;;;;1.00;0.40;;;19.50;62.20;;;;;;6246336;23;20004;-78
2022/05/30 08:05:06;;;;;;;0.60;0.40;;;19.50;62.80;;;;;;6218481;23;20004;-78
2022/05/30 08:07:32;;;;;;;0.65;0.40;;;19.60;62.70;;;;;;6245927;23;20001;-78
2022/05/30 08:09:57;;;;;;;0.40;0.40;;;19.60;63.10;;;;;;6245178;23;20004;-76
2022/05/30 08:12:23;;;;;;;1.77;0.52;;;19.60;62.50;;;;;;6237069;23;20007;-77
2022/05/30 08:14:49;;;;;;;0.70;0.50;;;19.70;63.10;;;;;;6206475;23;20004;-77
2022/05/30 08:17:15;;;;;;;0.35;0.22;;;19.70;62.70;;;;;;6215273;23;20731;-77
2022/05/30 08:19:41;;;;;;;2.25;0.40;;;19.80;63.00;;;;;;6240065;23;20079;-78
2022/05/30 08:22:09;;;;;;;0.30;0.30;;;19.80;63.20;;;;;;6244623;23;20008;-77
2022/05/30 08:24:37;;;;;;;0.80;0.40;;;19.90;63.10;;;;;;6243359;23;20415;-76
2022/05/30 08:27:03;;;;;;;0.63;0.40;;;20.00;63.40;;;;;;6218029;23;20095;-78
2022/05/30 08:29:30;;;;;;;0.60;0.47;;;20.00;63.00;;;;;;6245074;23;20000;-81
2022/05/30 08:31:56;;;;;;;0.70;0.50;;;20.10;63.00;;;;;;6244890;23;20023;-78
2022/05/30 08:34:22;;;;;;;2.38;0.70;;;20.20;63.20;;;;;;6216157;23;20134;-80
2022/05/30 08:36:47;;;;;;;0.32;0.32;;;20.20;62.50;;;;;;6218726;23;20020;-79
2022/05/30 08:42:00;;;;;;;1.05;0.40;;;20.30;63.00;;;;;;6244485;23;20078;-78
2022/05/30 08:44:29;;;;;;;2.10;0.30;;;20.30;62.40;;;;;;6217193;23;20008;-77
2022/05/30 08:47:27;;;;;;;1.30;0.50;;;20.30;62.70;;;;;;6246027;23;20074;-78
2022/05/30 08:50:04;;;;;;;0.98;0.30;;;20.40;62.60;;;;;;6225687;23;20015;-78
2022/05/30 08:52:53;;;;;;;1.13;0.52;;;20.40;62.50;;;;;;6218517;23;20004;-77
2022/05/30 08:55:46;;;;;;;0.65;0.35;;;20.50;62.70;;;;;;6243961;23;20003;-78
2022/05/30 08:58:41;;;;;;;0.45;0.40;;;20.60;62.70;;;;;;6243201;23;20091;-77
2022/05/30 09:01:18;;;;;;;0.20;0.20;;;20.70;62.20;;;;;;6243092;23;20004;-78
2022/05/30 09:04:08;;;;;;;2.75;0.40;;;20.80;62.10;;;;;;6241996;23;20075;-77
2022/05/30 09:06:58;;;;;;;0.73;0.30;;;20.80;61.90;;;;;;6242368;23;20511;-77
2022/05/30 09:09:49;;;;;;;0.30;0.30;;;20.90;62.00;;;;;;6241816;23;20054;-77
2022/05/30 09:12:17;;;;;;;;;;;21.00;61.50;;;;;;6242937;23;20000;-76
2022/05/30 09:14:57;;;;;;;0.20;0.20;;;21.00;60.40;;;;;;6242436;23;19903;-76
2022/05/30 09:17:50;;;;;;;0.20;0.20;;;21.00;61.50;;;;;;6216258;23;20005;-76
2022/05/30 09:20:20;;;;;;;0.85;0.40;;;21.10;61.90;;;;;;6216973;23;20004;-76
2022/05/30 09:22:47;;;;;;;0.55;0.40;;;21.20;60.60;;;;;;6216294;23;20634;-77
2022/05/30 09:28:08;;;;;;;0.75;0.50;;;21.30;60.90;;;;;;6243805;23;20047;-76
2022/05/30 09:31:15;;;;;;;0.50;0.30;;;21.30;59.70;;;;;;6217382;23;20000;-76
2022/05/30 09:33:44;;;;;;;0.40;0.30;;;21.20;59.40;;;;;;6243625;23;20004;-78
2022/05/30 09:36:30;;;;;;;0.57;0.35;;;21.20;60.50;;;;;;6243350;23;20079;-78
2022/05/30 09:39:03;;;;;;;1.00;0.35;;;21.20;60.90;;;;;;6245285;23;20008;-78
2022/05/30 09:41:30;;;;;;;0.32;0.20;;;21.20;61.40;;;;;;6244062;23;20016;-76
2022/05/30 09:44:21;;;;;;;2.97;0.40;;;21.40;61.60;;;;;;6244053;23;20000;-76
2022/05/30 09:47:22;;;;;;;2.47;0.43;;;21.60;61.00;;;;;;6244298;23;20004;-77
2022/05/30 09:49:53;;;;;;;0.30;0.30;;;21.60;59.80;;;;;;6161379;23;20008;-77
2022/05/30 09:52:28;;;;;;;1.02;0.43;;;21.50;60.20;;;;;;6243752;23;20075;-77
2022/05/30 09:54:55;;;;;;;0.35;0.30;;;21.70;60.90;;;;;;6244268;23;20004;-79
2022/05/30 09:57:34;;;;;;;2.20;0.40;;;21.80;61.00;;;;;;6243664;23;20090;-79
2022/05/30 10:00:17;;;;;;;0.95;0.32;;;22.00;60.10;;;;;;6244521;23;20000;-78
2022/05/30 10:02:45;;;;;;;0.93;0.50;;;22.00;59.40;;;;;;6217514;23;20005;-78
2022/05/30 10:05:20;;;;;;;2.65;0.50;;;22.10;59.10;;;;;;6244430;23;20020;-78
2022/05/30 10:08:27;;;;;;;2.47;0.40;;;22.10;57.70;;;;;;6244612;23;20020;-78
2022/05/30 10:10:56;;;;;;;0.80;0.30;;;22.10;56.80;;;;;;6243796;23;20515;-78
2022/05/30 10:13:39;;;;;;;0.82;0.32;;;22.20;58.00;;;;;;6244256;23;20380;-78
2022/05/30 10:16:09;;;;;;;1.02;0.40;;;22.30;57.80;;;;;;6244005;23;20006;-78
2022/05/30 10:18:56;;;;;;;0.60;0.20;;;22.40;57.70;;;;;;6243633;23;20004;-78
2022/05/30 10:30:22;;;;;;;0.55;0.30;;;22.60;57.60;;;;;;6244036;23;20015;-77
2022/05/30 10:32:54;;;;;;;0.22;0.20;;;22.60;57.80;;;;;;6243649;23;20378;-76
2022/05/30 10:35:37;;;;;;;0.50;0.30;;;22.60;57.80;;;;;;6244946;23;20000;-77
2022/05/30 10:38:26;;;;;;;0.50;0.40;;;22.60;57.60;;;;;;6244383;23;20477;-78
2022/05/30 10:40:58;;;;;;;0.30;0.30;;;22.60;57.40;;;;;;6216966;23;20320;-78
2022/05/30 10:43:40;;;;;;;0.50;0.50;;;22.60;57.60;;;;;;6217275;23;20016;-77
2022/05/30 10:46:10;;;;;;;1.17;0.45;;;22.60;58.10;;;;;;6245439;23;20331;-77
2022/05/30 10:48:39;;;;;;;0.95;0.40;;;22.60;58.10;;;;;;6244805;23;20032;-76
2022/05/30 10:51:11;;;;;;;1.23;0.30;;;22.60;58.10;;;;;;6244763;23;20008;-76
2022/05/30 10:53:59;;;;;;;0.88;0.35;;;22.80;58.40;;;;;;6243713;23;20000;-77
2022/05/30 10:56:29;;;;;;;0.73;0.25;;;23.00;59.10;;;;;;6245427;23;20345;-76
2022/05/30 10:59:10;;;;;;;0.43;0.40;;;23.20;58.50;;;;;;6245137;23;20098;-76
2022/05/30 11:01:57;;;;;;;4.97;0.50;;;23.30;57.90;;;;;;6244902;23;20070;-76
2022/05/30 11:04:55;;;;;;;1.55;0.52;;;23.40;58.00;;;;;;6244898;23;20000;-76
2022/05/30 11:07:32;;;;;;;1.23;0.35;;;23.50;58.10;;;;;;6234401;23;20012;-77
2022/05/30 11:10:29;;;;;;;1.00;0.60;;;23.60;57.80;;;;;;6240180;23;20057;-78
2022/05/30 11:13:27;;;;;;;0.68;0.50;;;23.60;57.50;;;;;;6242466;23;20067;-78
2022/05/30 11:16:00;;;;;;;0.82;0.40;;;23.40;57.40;;;;;;6244338;23;20000;-78
2022/05/30 11:19:20;;;;;;;0.57;0.40;;;23.50;57.30;;;;;;6243604;23;20473;-78
2022/05/30 11:22:30;;;;;;;3.10;0.77;;;23.50;57.40;;;;;;6193808;23;20339;-78
2022/05/30 11:24:56;;;;;;;1.25;0.60;;;23.40;56.70;;;;;;6249056;23;20004;-79
2022/05/30 11:27:58;;;;;;;1.15;0.50;;;23.40;57.30;;;;;;6245649;23;20004;-77
2022/05/30 11:30:38;;;;;;;1.10;0.60;;;23.40;57.30;;;;;;6248935;23;20011;-78
2022/05/30 11:33:25;;;;;;;0.82;0.50;;;23.40;57.40;;;;;;6249314;23;20008;-78
2022/05/30 11:35:51;;;;;;;1.08;0.60;;;23.40;57.20;;;;;;6249602;23;20077;-80
2022/05/30 11:38:16;;;;;;;1.63;0.57;;;23.30;57.70;;;;;;6249988;23;20024;-80
2022/05/30 11:40:51;;;;;;;0.65;0.40;;;23.20;56.70;;;;;;6224436;23;20800;-76
2022/05/30 11:43:38;;;;;;;1.17;0.60;;;23.30;57.60;;;;;;6251548;23;20030;-78
2022/05/30 11:46:22;;;;;;;0.80;0.30;;;23.60;58.00;;;;;;6223559;23;20491;-77
2022/05/30 11:49:07;;;;;;;0.47;0.32;;;24.00;58.00;;;;;;6251243;23;20014;-78
2022/05/30 11:52:00;;;;;;;0.82;0.30;;;24.30;56.90;;;;;;6223032;23;20004;-80
2022/05/30 11:54:47;;;;;;;1.75;0.30;;;24.40;55.40;;;;;;6251411;23;20027;-79
2022/05/30 11:57:38;;;;;;;0.65;0.50;;;24.60;55.10;;;;;;6251397;23;20004;-78
2022/05/30 12:00:10;;;;;;;;;;;24.80;55.10;;;;;;6214805;23;20426;-77
2022/05/30 12:02:57;;;;;;;0.75;0.40;;;25.00;54.60;;;;;;6241331;23;19911;-77
2022/05/30 12:05:41;;;;;;;0.57;0.52;;;25.20;54.00;;;;;;6214117;23;20087;-78
2022/05/30 12:08:27;;;;;;;1.17;0.30;;;25.30;53.20;;;;;;6242542;23;20008;-78
2022/05/30 12:10:53;;;;;;;0.88;0.32;;;25.30;54.10;;;;;;6165489;23;20514;-77
2022/05/30 12:13:40;;;;;;;1.95;0.55;;;25.40;53.40;;;;;;6240080;23;19996;-78
2022/05/30 12:16:25;;;;;;;0.63;0.30;;;25.50;53.50;;;;;;6214766;23;20374;-78
2022/05/30 12:24:58;;;;;;;0.50;0.50;;;25.30;53.70;;;;;;6242325;23;20019;-77
2022/05/30 12:27:26;;;;;;;0.47;0.40;;;25.30;53.50;;;;;;6242954;23;20008;-77
2022/05/30 12:29:53;;;;;;;1.05;0.30;;;25.40;52.60;;;;;;6240026;23;20008;-78
2022/05/30 12:32:32;;;;;;;1.10;0.38;;;25.60;52.50;;;;;;6242035;23;20100;-78
2022/05/30 12:34:58;;;;;;;0.20;0.20;;;25.90;52.50;;;;;;6242686;23;19996;-78
2022/05/30 12:37:44;;;;;;;0.75;0.50;;;26.10;52.00;;;;;;6240851;23;20010;-78
2022/05/30 12:40:22;;;;;;;1.48;0.50;;;26.10;51.50;;;;;;6241560;23;20681;-77
2022/05/30 12:42:56;;;;;;;2.13;1.40;;;25.90;52.20;;;;;;6241952;23;20012;-80
2022/05/30 12:45:36;;;;;;;5.00;3.60;;;25.90;52.10;;;;;;6214800;23;20011;-80
2022/05/30 12:48:16;;;;;;;3.42;2.20;;;26.10;51.30;;;;;;6214760;23;20078;-80
2022/05/30 12:50:51;;;;;;;2.05;0.60;;;26.20;51.40;;;;;;6215266;23;20089;-81
2022/05/30 12:53:19;;;;;;;3.40;1.30;;;26.10;52.00;;;;;;6216370;23;20031;-80
2022/05/30 12:55:53;;;;;;;1.60;1.23;;;26.10;52.30;;;;;;6243643;23;20004;-78
2022/05/30 12:58:34;;;;;;;1.88;1.40;;;25.90;52.40;;;;;;6242204;23;20038;-78
2022/05/30 13:01:18;;;;;;;1.08;0.90;;;25.70;53.00;;;;;;6244583;23;20004;-79
2022/05/30 13:03:46;;;;;;;2.13;1.10;;;25.50;54.00;;;;;;6217569;23;20441;-81
2022/05/30 13:06:24;;;;;;;1.15;0.60;;;25.30;54.40;;;;;;6217045;23;20011;-81
2022/05/30 13:08:58;;;;;;;2.38;0.93;;;25.10;55.40;;;;;;6244636;23;20008;-81
2022/05/30 13:11:58;;;;;;;1.33;0.70;;;24.90;57.60;;;;;;6244925;23;20438;-83
2022/05/30 13:14:24;;;;;;;0.60;0.40;;;24.60;57.40;;;;;;6245273;23;20000;-83
2022/05/30 13:16:52;;;;;;;2.50;0.63;;;24.40;58.30;;;;;;6218357;23;20004;-83
2022/05/30 13:19:18;;;;;;;1.10;0.55;;;24.20;59.30;;;;;;6244974;23;20015;-83
2022/05/30 13:21:48;;;;;;;1.10;0.47;;;24.10;59.30;;;;;;6244573;23;20004;-82
2022/05/30 13:24:33;;;;;;;0.70;0.50;;;24.00;59.80;;;;;;6244239;23;20004;-81
2022/05/30 13:27:00;;;;;;;0.82;0.47;;;23.90;60.70;;;;;;6244251;23;20299;-81
2022/05/30 13:29:32;;;;;;;0.50;0.50;;;23.80;61.00;;;;;;6244271;23;20138;-81
2022/05/30 13:31:58;;;;;;;1.95;0.60;;;23.80;61.60;;;;;;6217777;23;20031;-82
2022/05/30 13:34:28;;;;;;;1.13;0.50;;;23.70;63.00;;;;;;6245258;23;20023;-82
2022/05/30 13:36:56;;;;;;;0.20;0.20;;;23.70;62.20;;;;;;6245614;23;20430;-83
2022/05/30 13:39:22;;;;;;;0.77;0.30;;;23.60;62.90;;;;;;6219086;23;20042;-83
2022/05/30 13:41:49;;;;;;;1.73;0.40;;;23.60;63.10;;;;;;6245720;23;20351;-84
2022/05/30 13:44:17;;;;;;;1.10;0.47;;;23.50;63.90;;;;;;6245627;23;20058;-84
2022/05/30 13:46:56;;;;;;;0.30;0.30;;;23.40;63.40;;;;;;6245351;23;20001;-81
2022/05/30 13:49:40;;;;;;;0.65;0.20;;;23.40;63.90;;;;;;6243397;23;20079;-80
2022/05/30 13:52:13;;;;;;;1.00;0.50;;;23.60;64.60;;;;;;6242891;23;20035;-81
2022/05/30 13:54:45;;;;;;;0.85;0.30;;;23.80;64.80;;;;;;6243892;23;20007;-81
2022/05/30 13:57:13;;;;;;;0.47;0.40;;;23.80;64.80;;;;;;6217231;23;20020;-81
2022/05/30 13:59:43;;;;;;;0.47;0.30;;;24.10;66.00;;;;;;6244043;23;20004;-81
2022/05/30 14:02:40;;;;;;;0.88;0.55;;;24.20;65.90;;;;;;6244714;23;20006;-83
2022/05/30 14:05:11;;;;;;;1.05;0.35;;;24.10;65.10;;;;;;6241872;23;20004;-82
2022/05/30 14:07:44;;;;;;;2.50;0.45;;;24.10;65.00;;;;;;6243675;23;20014;-82
2022/05/30 14:10:14;;;;;;;1.45;0.40;;;24.00;65.00;;;;;;6217009;23;20054;-83
2022/05/30 14:12:47;;;;;;;2.03;0.40;;;23.90;64.70;;;;;;6216809;23;20008;-82
2022/05/30 14:15:13;;;;;;;1.10;0.30;;;23.90;64.60;;;;;;6245472;23;20058;-83
2022/05/30 14:17:39;;;;;;;0.45;0.20;;;23.80;64.50;;;;;;6245111;23;20004;-83
2022/05/30 14:20:14;;;;;;;0.20;0.20;;;23.70;64.70;;;;;;6243566;23;20011;-82
2022/05/30 14:22:54;;;;;;;0.95;0.50;;;23.70;65.20;;;;;;6242953;23;20015;-82
2022/05/30 14:25:57;;;;;;;2.17;0.35;;;23.60;65.50;;;;;;6244507;23;20004;-81
2022/05/30 14:28:28;;;;;;;1.33;0.30;;;23.50;66.30;;;;;;6237433;23;20032;-82
2022/05/30 14:31:10;;;;;;;0.55;0.50;;;23.40;66.10;;;;;;6244691;23;20008;-82
2022/05/30 14:33:37;;;;;;;5.40;0.50;;;23.40;67.20;;;;;;6243693;23;20020;-82
2022/05/30 14:36:25;;;;;;;0.65;0.43;;;23.30;67.20;;;;;;6244084;23;20004;-82
2022/05/30 14:38:51;;;;;;;0.85;0.52;;;23.30;67.50;;;;;;6244471;23;20054;-80
2022/05/30 14:41:24;;;;;;;1.70;0.60;;;23.20;67.40;;;;;;6244013;23;20381;-82
2022/05/30 14:43:54;;;;;;;2.80;0.90;;;23.20;67.60;;;;;;6217139;23;20008;-82
2022/05/30 14:46:39;;;;;;;1.27;0.60;;;23.20;67.30;;;;;;6244511;23;20071;-83
2022/05/30 14:49:18;;;;;;;1.30;0.57;;;23.10;67.80;;;;;;6216298;23;20008;-83
2022/05/30 14:51:53;;;;;;;0.98;0.55;;;23.10;68.30;;;;;;6241493;23;20000;-82
2022/05/30 14:54:45;;;;;;;1.65;0.80;;;23.00;67.80;;;;;;6242100;23;20007;-80
2022/05/30 14:57:21;;;;;;;3.55;1.25;;;23.00;68.00;;;;;;6226766;23;20005;-81
2022/05/30 14:59:48;;;;;;;1.92;1.38;;;23.10;68.00;;;;;;6244159;23;20030;-81
2022/05/30 15:05:01;;;;;;;1.48;0.80;;;23.10;68.20;;;;;;6244073;23;20066;-83
2022/05/30 15:07:47;;;;;;;0.85;0.70;;;23.10;68.20;;;;;;6244979;23;20008;-82
2022/05/30 15:10:16;;;;;;;2.97;0.88;;;23.10;68.60;;;;;;6244460;23;20102;-83
2022/05/30 15:12:43;;;;;;;1.67;0.70;;;23.10;68.60;;;;;;6244250;23;20016;-83
2022/05/30 15:15:09;;;;;;;1.85;0.77;;;23.10;69.10;;;;;;6244426;23;20000;-82
2022/05/30 15:17:34;;;;;;;2.33;0.73;;;23.10;68.60;;;;;;6246191;23;19996;-82
2022/05/30 15:20:03;;;;;;;1.15;0.68;;;23.10;69.10;;;;;;6245974;23;20055;-82
2022/05/30 15:22:29;;;;;;;1.58;0.85;;;23.10;68.90;;;;;;6245178;23;20026;-80
2022/05/30 15:25:04;;;;;;;1.23;0.70;;;23.10;68.70;;;;;;6218813;23;20493;-79
2022/05/30 15:27:30;;;;;;;2.55;0.55;;;23.10;68.20;;;;;;6245800;23;20430;-80
2022/05/30 15:29:55;;;;;;;0.85;0.50;;;23.10;67.90;;;;;;6245769;23;20004;-80
2022/05/30 15:32:24;;;;;;;2.00;0.73;;;23.20;67.90;;;;;;6244902;23;20000;-79
2022/05/30 15:34:51;;;;;;;1.83;1.00;;;23.10;68.40;;;;;;6244639;23;20000;-80
2022/05/30 15:37:18;;;;;;;0.73;0.50;;;23.10;69.00;;;;;;6242857;23;20000;-80
2022/05/30 15:39:46;;;;;;;1.13;0.68;;;23.10;68.30;;;;;;6246451;23;20004;-79
2022/05/30 15:42:13;;;;;;;1.73;0.70;;;23.10;68.10;;;;;;6216211;23;20016;-79
2022/05/30 15:44:41;;;;;;;2.05;0.77;;;23.10;68.00;;;;;;6245014;23;20563;-80
2022/05/30 15:47:08;;;;;;;1.40;0.88;;;22.90;69.00;;;;;;6218408;23;20707;-82
2022/05/30 15:49:36;;;;;;;3.25;0.70;;;23.00;69.10;;;;;;6245553;23;20028;-79
2022/05/30 15:52:12;;;;;;;3.08;1.00;;;22.90;69.10;;;;;;6219054;23;20007;-80
2022/05/30 15:57:40;;;;;;;0.85;0.52;;;23.00;69.70;;;;;;6242067;23;20015;-80
2022/05/30 16:00:26;;;;;;;1.10;0.70;;;22.90;69.30;;;;;;6243600;23;20011;-80
2022/05/30 16:03:09;;;;;;;0.63;0.50;;;23.00;69.30;;;;;;6242386;23;20012;-80
2022/05/30 16:05:36;;;;;;;2.20;0.65;;;23.00;69.50;;;;;;6217713;23;20105;-80
2022/05/30 16:08:27;;;;;;;1.25;0.60;;;22.90;70.20;;;;;;6244377;23;20000;-80
2022/05/30 16:11:06;;;;;;;1.20;0.60;;;23.00;70.10;;;;;;6217632;23;20031;-80
2022/05/30 16:13:32;;;;;;;0.43;0.38;;;23.00;69.60;;;;;;6244652;23;20012;-80